createdAt,value
2023-04-10T00:07:58.916Z,58.92
2023-04-10T00:09:20.255Z,59.25
2023-04-10T00:10:42.413Z,65.97
2023-04-10T00:14:06.981Z,59.50
2023-04-10T00:15:51.170Z,63.10
2023-04-10T00:18:41.613Z,59.13
2023-04-10T00:20:05.306Z,58.40
2023-04-10T00:24:35.786Z,60.70
2023-04-10T00:26:12.049Z,61.83
2023-04-10T00:27:35.224Z,62.92
2023-04-10T00:29:28.143Z,65.70
2023-04-10T00:30:52.554Z,63.38
2023-04-10T00:32:34.444Z,61.35
2023-04-10T00:33:59.163Z,62.13
2023-04-10T00:35:21.544Z,63.67
2023-04-10T00:36:48.127Z,62.05
2023-04-10T00:38:21.652Z,62.20
2023-04-10T00:39:53.227Z,64.82
2023-04-10T00:42:38.372Z,59.35
2023-04-10T00:44:02.308Z,64.53
2023-04-10T00:46:03.009Z,67.53
2023-04-10T00:47:47.440Z,63.65
2023-04-10T00:49:11.612Z,61.97
2023-04-10T00:50:34.737Z,65.22
2023-04-10T00:52:04.648Z,65.20
2023-04-10T00:53:37.546Z,64.35
2023-04-10T00:55:06.705Z,65.65
2023-04-10T00:57:51.752Z,65.15
2023-04-10T00:59:18.609Z,62.10
2023-04-10T01:00:41.224Z,63.33
2023-04-10T01:02:03.916Z,69.68
2023-04-10T01:03:25.716Z,67.55
2023-04-10T01:04:58.302Z,68.78
2023-04-10T01:06:31.386Z,69.78
2023-04-10T01:08:30.225Z,70.35
2023-04-10T01:10:17.138Z,66.20
2023-04-10T01:14:42.888Z,64.85
2023-04-10T01:16:11.751Z,66.28
2023-04-10T01:17:41.734Z,63.72
2023-04-10T01:19:11.137Z,66.13
2023-04-10T01:20:36.307Z,67.30
2023-04-10T01:22:01.599Z,64.55
2023-04-10T01:23:55.616Z,70.10
2023-04-10T01:25:39.733Z,67.70
2023-04-10T01:27:16.672Z,69.10
2023-04-10T01:29:00.965Z,71.07
2023-04-10T01:30:24.866Z,67.25
2023-04-10T01:31:53.731Z,68.10
2023-04-10T01:33:20.176Z,68.97
2023-04-10T01:34:46.943Z,68.97
2023-04-10T01:36:10.354Z,70.28
2023-04-10T01:37:35.898Z,68.47
2023-04-10T01:38:58.890Z,70.85
2023-04-10T01:41:03.233Z,66.85
2023-04-10T01:42:33.487Z,66.22
2023-04-10T01:43:58.279Z,65.65
2023-04-10T01:45:24.991Z,68.00
2023-04-10T01:46:49.629Z,67.47
2023-04-10T01:48:16.775Z,67.20
2023-04-10T01:49:44.742Z,66.82
2023-04-10T01:51:12.488Z,66.55
2023-04-10T01:52:34.740Z,69.40
2023-04-10T01:54:10.511Z,69.47
2023-04-10T01:55:32.702Z,71.13
2023-04-10T01:57:02.375Z,66.10
2023-04-10T01:58:26.910Z,68.10
2023-04-10T01:59:53.354Z,65.82
2023-04-10T02:01:29.036Z,67.32
2023-04-10T02:02:52.749Z,64.82
2023-04-10T02:04:14.023Z,63.22
2023-04-10T02:05:56.409Z,66.32
2023-04-10T02:07:29.032Z,64.03
2023-04-10T02:08:56.682Z,63.38
2023-04-10T02:10:22.754Z,64.93
2023-04-10T02:12:19.938Z,66.75
2023-04-10T02:13:41.924Z,60.33
2023-04-10T02:16:30.018Z,56.80
2023-04-10T02:17:56.564Z,54.90
2023-04-10T02:19:24.565Z,54.80
2023-04-10T02:20:48.001Z,50.67
2023-04-10T02:22:13.878Z,50.45
2023-04-10T02:23:36.950Z,51.95
2023-04-10T02:24:59.118Z,51.65
2023-04-10T02:26:22.640Z,48.90
2023-04-10T02:27:45.252Z,52.03
2023-04-10T02:29:06.521Z,48.88
2023-04-10T02:30:33.141Z,47.47
2023-04-10T02:31:57.314Z,52.55
2023-04-10T02:33:25.834Z,51.00
2023-04-10T02:34:51.286Z,46.30
2023-04-10T02:36:19.469Z,46.17
2023-04-10T02:37:42.774Z,46.53
2023-04-10T02:39:06.351Z,46.28
2023-04-10T02:40:27.760Z,49.70
2023-04-10T02:42:10.202Z,45.75
2023-04-10T02:43:33.014Z,47.03
2023-04-10T02:44:58.108Z,46.45
2023-04-10T02:46:28.602Z,43.85
2023-04-10T02:47:50.240Z,44.83
2023-04-10T02:49:12.806Z,47.58
2023-04-10T02:50:35.218Z,47.05
2023-04-10T02:51:57.950Z,45.20
2023-04-10T02:53:29.861Z,45.40
2023-04-10T02:54:55.848Z,43.78
2023-04-10T02:56:20.029Z,44.22
2023-04-10T02:57:47.588Z,44.35
2023-04-10T02:59:09.721Z,45.38
2023-04-10T03:00:31.537Z,43.55
2023-04-10T03:04:06.536Z,43.28
2023-04-10T03:05:33.996Z,42.33
2023-04-10T03:06:58.534Z,40.05
2023-04-10T03:08:21.247Z,41.47
2023-04-10T03:09:42.205Z,41.55
2023-04-10T03:11:04.662Z,41.20
2023-04-10T03:12:29.758Z,40.13
2023-04-10T03:13:53.241Z,40.28
2023-04-10T03:15:16.381Z,41.50
2023-04-10T03:16:37.937Z,43.28
2023-04-10T03:18:03.830Z,41.15
2023-04-10T03:19:26.915Z,41.10
2023-04-10T03:20:49.797Z,43.42
2023-04-10T03:22:14.964Z,42.30
2023-04-10T03:23:37.353Z,44.70
2023-04-10T03:26:24.274Z,43.25
2023-04-10T03:27:49.065Z,45.78
2023-04-10T03:29:11.562Z,44.17
2023-04-10T03:30:35.433Z,39.80
2023-04-10T03:31:58.573Z,41.63
2023-04-10T03:33:24.811Z,42.58
2023-04-10T03:37:55.872Z,38.75
2023-04-10T03:39:27.696Z,41.03
2023-04-10T03:43:56.088Z,42.05
2023-04-10T03:45:48.673Z,37.88
2023-04-10T03:47:12.361Z,37.53
2023-04-10T03:48:37.520Z,37.75
2023-04-10T03:50:00.201Z,38.55
2023-04-10T03:51:30.531Z,37.72
2023-04-10T03:53:11.786Z,39.20
2023-04-10T03:54:34.360Z,37.90
2023-04-10T03:56:27.860Z,37.53
2023-04-10T03:57:49.716Z,37.90
2023-04-10T03:59:19.370Z,37.50
2023-04-10T04:00:40.534Z,39.17
2023-04-10T04:05:45.020Z,38.38
2023-04-10T04:07:29.541Z,39.28
2023-04-10T04:10:29.279Z,39.28
2023-04-10T04:12:28.195Z,38.80
2023-04-10T04:13:57.842Z,38.92
2023-04-10T04:15:34.677Z,38.00
2023-04-10T04:17:12.101Z,38.97
2023-04-10T04:18:58.871Z,38.80
2023-04-10T04:20:49.830Z,38.17
2023-04-10T04:22:29.119Z,37.87
2023-04-10T04:24:01.142Z,40.28
2023-04-10T04:26:11.057Z,37.78
2023-04-10T04:27:59.073Z,38.90
2023-04-10T04:29:38.496Z,38.78
2023-04-10T04:31:12.574Z,38.33
2023-04-10T04:32:44.158Z,39.97
2023-04-10T04:35:32.933Z,38.30
2023-04-10T04:37:13.523Z,41.95
2023-04-10T04:38:58.246Z,40.10
2023-04-10T04:40:25.886Z,37.28
2023-04-10T04:42:07.851Z,40.70
2023-04-10T04:43:42.888Z,40.70
2023-04-10T04:45:31.815Z,40.92
2023-04-10T04:47:24.387Z,39.00
2023-04-10T04:49:02.815Z,40.33
2023-04-10T04:50:37.787Z,40.25
2023-04-10T04:53:56.758Z,44.33
2023-04-10T04:55:38.194Z,42.67
2023-04-10T04:57:33.143Z,46.00
2023-04-10T04:58:58.580Z,48.35
2023-04-10T05:00:43.816Z,47.92
2023-04-10T05:02:44.630Z,47.38
2023-04-10T05:04:26.627Z,48.67
2023-04-10T05:06:21.870Z,48.03
2023-04-10T05:08:06.492Z,49.22
2023-04-10T05:09:57.188Z,49.17
2023-04-10T05:11:40.132Z,51.00
2023-04-10T05:13:34.407Z,50.05
2023-04-10T05:15:15.745Z,51.28
2023-04-10T05:17:08.482Z,57.97
2023-04-10T05:18:39.953Z,56.20
2023-04-10T05:20:38.019Z,61.28
2023-04-10T05:22:34.570Z,61.58
2023-04-10T05:24:29.603Z,60.22
2023-04-10T05:26:14.405Z,63.45
2023-04-10T05:27:54.784Z,59.08
2023-04-10T05:29:48.998Z,54.45
2023-04-10T05:31:35.722Z,56.95
2023-04-10T05:33:11.068Z,56.38
2023-04-10T05:35:27.294Z,59.30
2023-04-10T05:36:55.255Z,55.85
2023-04-10T05:38:37.685Z,52.60
2023-04-10T05:43:18.158Z,49.75
2023-04-10T05:44:56.180Z,52.00
2023-04-10T05:46:41.784Z,50.63
2023-04-10T05:48:21.058Z,50.88
2023-04-10T05:50:24.472Z,50.97
2023-04-10T05:52:06.964Z,51.03
2023-04-10T05:55:38.519Z,50.50
2023-04-10T05:57:19.026Z,52.50
2023-04-10T05:59:00.218Z,51.92
2023-04-10T06:00:44.243Z,52.05
2023-04-10T06:02:39.584Z,49.83
2023-04-10T06:04:06.669Z,50.05
2023-04-10T06:05:32.366Z,51.83
2023-04-10T06:10:47.165Z,50.15
2023-04-10T06:12:14.824Z,52.03
2023-04-10T06:14:53.731Z,52.22
2023-04-10T06:19:15.332Z,53.05
2023-04-10T06:20:37.530Z,52.67
2023-04-10T06:22:02.367Z,51.25
2023-04-10T06:23:36.976Z,51.72
2023-04-10T06:25:08.138Z,49.72
2023-04-10T06:27:14.416Z,51.97
2023-04-10T06:28:38.135Z,48.45
2023-04-10T06:30:00.873Z,52.45
2023-04-10T06:34:31.261Z,49.05
2023-04-10T06:35:58.213Z,48.78
2023-04-10T06:37:20.995Z,49.67
2023-04-10T06:42:37.750Z,48.05
2023-04-10T06:46:59.926Z,47.20
2023-04-10T06:48:22.269Z,46.78
2023-04-10T06:49:53.583Z,46.20
2023-04-10T06:51:21.489Z,45.58
2023-04-10T06:52:46.304Z,44.97
2023-04-10T06:54:11.296Z,45.67
2023-04-10T06:55:33.522Z,45.63
2023-04-10T06:56:59.018Z,43.35
2023-04-10T06:58:21.209Z,46.47
2023-04-10T06:59:43.762Z,44.88
2023-04-10T07:01:09.275Z,46.80
2023-04-10T07:02:38.619Z,48.47
2023-04-10T07:04:01.081Z,46.97
2023-04-10T07:05:28.766Z,46.60
2023-04-10T07:06:53.015Z,49.00
2023-04-10T07:08:21.863Z,49.40
2023-04-10T07:09:45.266Z,49.45
2023-04-10T07:11:10.613Z,48.65
2023-04-10T07:12:46.419Z,47.20
2023-04-10T07:14:23.204Z,48.00
2023-04-10T07:15:52.920Z,48.22
2023-04-10T07:17:15.352Z,49.58
2023-04-10T07:18:42.801Z,47.55
2023-04-10T07:20:08.498Z,49.10
2023-04-10T07:21:33.274Z,49.85
2023-04-10T07:22:59.153Z,48.10
2023-04-10T07:24:22.053Z,48.10
2023-04-10T07:25:44.539Z,50.70
2023-04-10T07:28:47.091Z,53.30
2023-04-10T07:30:28.737Z,48.45
2023-04-10T07:32:05.917Z,49.97
2023-04-10T07:33:36.618Z,53.53
2023-04-10T07:34:59.270Z,54.72
2023-04-10T07:39:46.461Z,55.72
2023-04-10T07:41:35.688Z,51.25
2023-04-10T07:43:56.063Z,55.08
2023-04-10T07:47:48.698Z,55.20
2023-04-10T07:49:21.965Z,59.17
2023-04-10T07:50:44.511Z,54.83
2023-04-10T07:52:06.965Z,54.28
2023-04-10T07:53:33.353Z,56.80
2023-04-10T07:55:13.350Z,54.17
2023-04-10T08:00:00.661Z,53.40
2023-04-10T08:01:26.586Z,55.47
2023-04-10T08:12:59.142Z,51.10
2023-04-10T08:17:18.845Z,48.20
2023-04-10T08:19:07.621Z,47.75
2023-04-10T08:20:41.658Z,48.22
2023-04-10T08:22:06.972Z,49.92
2023-04-10T08:24:27.594Z,47.30
2023-04-10T08:28:25.762Z,46.35
2023-04-10T08:31:55.428Z,43.95
2023-04-10T08:33:19.544Z,47.03
2023-04-10T08:34:42.362Z,47.92
2023-04-10T08:37:00.978Z,46.50
2023-04-10T08:38:32.980Z,44.88
2023-04-10T08:39:55.741Z,46.22
2023-04-10T08:41:21.548Z,45.97
2023-04-10T08:46:11.093Z,41.33
2023-04-10T08:47:39.307Z,41.00
2023-04-10T08:49:04.689Z,42.55
2023-04-10T08:53:22.543Z,38.13
2023-04-10T08:54:54.803Z,39.15
2023-04-10T08:59:37.083Z,38.20
2023-04-10T09:03:49.626Z,37.90
2023-04-10T09:06:03.021Z,36.65
2023-04-10T09:08:16.086Z,36.58
2023-04-10T09:10:53.912Z,35.60
2023-04-10T09:12:32.422Z,35.03
2023-04-10T09:13:57.018Z,37.72
2023-04-10T09:15:35.005Z,35.67
2023-04-10T09:17:22.867Z,36.60
2023-04-10T09:18:49.070Z,37.17
2023-04-10T09:20:29.787Z,36.13
2023-04-10T09:22:17.354Z,37.42
2023-04-10T09:23:54.041Z,37.47
2023-04-10T09:25:55.462Z,38.60
2023-04-10T09:27:39.692Z,37.97
2023-04-10T09:29:57.307Z,39.40
2023-04-10T09:31:33.543Z,35.05
2023-04-10T09:33:09.287Z,35.30
2023-04-10T09:37:41.289Z,34.63
2023-04-10T09:39:10.071Z,38.55
2023-04-10T09:40:42.584Z,36.88
2023-04-10T09:42:05.258Z,35.25
2023-04-10T09:43:28.885Z,38.28
2023-04-10T09:45:00.184Z,35.97
2023-04-10T09:49:32.978Z,35.03
2023-04-10T09:51:00.508Z,34.58
2023-04-10T09:52:23.608Z,34.75
2023-04-10T09:53:59.297Z,33.90
2023-04-10T09:55:21.915Z,34.78
2023-04-10T09:56:50.602Z,33.97
2023-04-10T09:58:17.236Z,34.47
2023-04-10T09:59:42.922Z,31.38
2023-04-10T10:01:05.996Z,32.90
2023-04-10T10:02:32.717Z,31.88
2023-04-10T10:03:57.381Z,32.17
2023-04-10T10:05:29.099Z,34.00
2023-04-10T10:06:51.638Z,32.25
2023-04-10T10:08:24.214Z,30.83
2023-04-10T10:09:57.036Z,29.00
2023-04-10T10:11:22.885Z,28.27
2023-04-10T10:12:53.013Z,28.27
2023-04-10T10:14:21.654Z,27.00
2023-04-10T10:15:57.247Z,28.40
2023-04-10T10:17:27.630Z,28.75
2023-04-10T10:19:06.378Z,26.85
2023-04-10T10:20:57.760Z,28.98
2023-04-10T10:22:21.580Z,28.27
2023-04-10T10:23:56.315Z,27.27
2023-04-10T10:25:21.491Z,27.13
2023-04-10T10:26:44.831Z,27.30
2023-04-10T10:28:07.425Z,26.40
2023-04-10T10:29:41.142Z,25.52
2023-04-10T10:31:05.364Z,26.95
2023-04-10T10:32:32.403Z,27.77
2023-04-10T10:33:56.589Z,27.83
2023-04-10T10:35:22.415Z,39.78
2023-04-10T10:36:54.622Z,31.58
2023-04-10T10:39:12.642Z,32.08
2023-04-10T10:40:56.437Z,29.65
2023-04-10T10:42:27.989Z,29.63
2023-04-10T10:44:02.740Z,29.27
2023-04-10T10:45:38.428Z,28.55
2023-04-10T10:47:22.699Z,31.90
2023-04-10T10:49:00.960Z,29.73
2023-04-10T10:50:53.962Z,32.42
2023-04-10T10:52:23.685Z,30.00
2023-04-10T10:53:46.540Z,30.05
2023-04-10T10:55:36.201Z,31.83
2023-04-10T10:57:02.092Z,31.70
2023-04-10T10:58:59.749Z,31.35
2023-04-10T11:00:25.509Z,30.42
2023-04-10T11:02:16.298Z,30.67
2023-04-10T11:03:39.314Z,31.52
2023-04-10T11:05:01.725Z,32.20
2023-04-10T11:06:52.672Z,34.53
2023-04-10T11:08:17.378Z,32.83
2023-04-10T11:10:20.366Z,28.55
2023-04-10T11:12:01.608Z,28.73
2023-04-10T11:13:24.895Z,27.67
2023-04-10T11:18:27.379Z,30.42
2023-04-10T11:20:01.243Z,31.60
2023-04-10T11:21:23.895Z,30.83
2023-04-10T11:23:12.132Z,30.25
2023-04-10T11:25:10.604Z,34.53
2023-04-10T11:26:52.942Z,33.20
2023-04-10T11:28:39.716Z,32.63
2023-04-10T11:30:09.059Z,31.13
2023-04-10T11:33:00.805Z,32.95
2023-04-10T11:34:27.160Z,32.47
2023-04-10T11:39:46.035Z,29.92
2023-04-10T11:49:37.822Z,34.55
2023-04-10T11:51:06.566Z,32.40
2023-04-10T11:53:15.073Z,31.83
2023-04-10T11:55:31.671Z,32.60
2023-04-10T11:57:02.611Z,32.70
2023-04-10T11:58:46.596Z,32.63
2023-04-10T12:00:16.440Z,31.95
2023-04-10T12:01:41.950Z,30.70
2023-04-10T12:03:06.582Z,33.53
2023-04-10T12:05:15.237Z,31.83
2023-04-10T12:06:45.978Z,32.10
2023-04-10T12:10:05.339Z,30.48
2023-04-10T12:11:28.950Z,32.78
2023-04-10T12:12:52.630Z,33.75
2023-04-10T12:14:15.161Z,32.95
2023-04-10T12:15:38.972Z,33.25
2023-04-10T12:17:05.699Z,32.67
2023-04-10T12:18:28.147Z,37.70
2023-04-10T12:19:52.932Z,34.50
2023-04-10T12:21:19.444Z,33.28
2023-04-10T12:22:48.394Z,34.67
2023-04-10T12:24:11.272Z,33.40
2023-04-10T12:31:34.307Z,34.15
2023-04-10T12:33:24.047Z,30.67
2023-04-10T12:33:33.757Z,35.80
2023-04-10T12:35:11.348Z,36.35
2023-04-10T12:43:50.413Z,33.15
2023-04-10T12:45:21.700Z,37.20
2023-04-10T12:46:44.729Z,33.23
2023-04-10T12:49:01.094Z,37.67
2023-04-10T12:50:59.971Z,31.73
2023-04-10T12:52:24.743Z,31.48
2023-04-10T12:53:51.402Z,31.23
2023-04-10T12:55:16.142Z,31.73
2023-04-10T12:56:48.623Z,31.10
2023-04-10T12:58:30.624Z,34.28
2023-04-10T13:00:22.738Z,32.20
2023-04-10T13:01:51.356Z,27.67
2023-04-10T13:03:13.740Z,28.38
2023-04-10T13:04:36.394Z,31.92
2023-04-10T13:06:00.414Z,33.05
2023-04-10T13:07:22.338Z,31.38
2023-04-10T13:08:46.771Z,31.13
2023-04-10T13:10:21.669Z,30.95
2023-04-10T13:13:52.954Z,32.83
2023-04-10T13:18:13.872Z,28.83
2023-04-10T13:19:36.478Z,27.98
2023-04-10T13:21:03.418Z,28.27
2023-04-10T13:22:31.136Z,29.50
2023-04-10T13:33:11.009Z,29.60
2023-04-10T13:34:36.333Z,28.67
2023-04-10T13:41:27.744Z,26.70
2023-04-10T13:46:08.990Z,26.92
2023-04-10T13:51:22.541Z,24.95
2023-04-10T13:52:46.560Z,24.25
2023-04-10T13:54:10.979Z,23.50
2023-04-10T13:55:33.536Z,22.27
2023-04-10T13:56:56.311Z,22.85
2023-04-10T13:58:18.728Z,23.15
2023-04-10T13:59:40.664Z,21.38
2023-04-10T14:01:07.027Z,20.30
2023-04-10T14:02:31.227Z,20.27
2023-04-10T14:03:55.103Z,20.70
2023-04-10T14:05:23.289Z,19.10
2023-04-10T14:06:45.576Z,18.95
2023-04-10T14:08:11.864Z,19.42
2023-04-10T14:09:36.413Z,18.27
2023-04-10T14:11:12.118Z,18.38
2023-04-10T14:12:47.722Z,19.38
2023-04-10T14:14:20.325Z,19.52
2023-04-10T14:15:57.639Z,19.33
2023-04-10T14:17:44.631Z,21.02
2023-04-10T14:19:30.519Z,20.90
2023-04-10T14:21:02.484Z,18.67
2023-04-10T14:23:06.323Z,21.80
2023-04-10T14:24:31.328Z,21.38
2023-04-10T14:25:56.502Z,21.80
2023-04-10T14:27:29.779Z,21.05
2023-04-10T14:28:55.347Z,19.60
2023-04-10T14:31:05.514Z,19.85
2023-04-10T14:32:37.429Z,20.73
2023-04-10T14:34:11.478Z,22.33
2023-04-10T16:54:56.096Z,18.27
2023-04-10T16:56:20.056Z,20.33
2023-04-10T16:58:08.456Z,19.85
2023-04-10T16:59:43.282Z,19.08
2023-04-10T17:01:28.196Z,19.27
2023-04-10T17:03:08.739Z,20.90
2023-04-10T17:04:34.412Z,21.75
2023-04-10T17:06:02.580Z,20.33
2023-04-10T17:07:30.508Z,21.00
2023-04-10T17:08:53.453Z,21.52
2023-04-10T17:10:18.431Z,20.60
2023-04-10T17:11:44.156Z,21.17
2023-04-10T17:13:14.648Z,23.95
2023-04-10T17:18:11.776Z,25.75
2023-04-10T17:19:44.986Z,20.65
2023-04-10T17:21:21.161Z,21.83
2023-04-10T17:22:50.917Z,19.92
2023-04-10T17:24:29.422Z,20.10
2023-04-10T17:32:40.133Z,39.83
2023-04-10T17:34:05.457Z,28.70
2023-04-10T17:35:30.804Z,26.42
2023-04-10T17:59:51.950Z,38.28
2023-04-10T18:01:34.116Z,39.40
2023-04-10T18:03:01.218Z,44.13
2023-04-10T18:09:03.895Z,49.17
2023-04-10T18:11:04.181Z,40.97
2023-04-10T18:12:57.122Z,47.10
2023-04-10T18:17:44.632Z,40.97
2023-04-10T18:20:21.013Z,41.35
2023-04-10T18:24:12.254Z,36.17
2023-04-10T18:25:37.513Z,35.03
2023-04-10T18:27:01.172Z,35.75
2023-04-10T18:29:21.025Z,33.72
2023-04-10T18:34:08.832Z,30.23
2023-04-10T18:35:45.704Z,30.55
2023-04-10T18:40:17.089Z,32.60
2023-04-10T18:41:43.942Z,31.48
2023-04-10T18:43:06.808Z,31.52
2023-04-10T18:55:37.398Z,35.08
2023-04-10T18:57:23.973Z,34.90
2023-04-10T18:59:37.546Z,35.80
2023-04-10T19:01:13.296Z,32.05
2023-04-10T19:02:50.273Z,34.85
2023-04-10T19:04:51.603Z,31.83
2023-04-10T19:09:10.911Z,32.97
2023-04-10T19:10:37.770Z,34.92
2023-04-10T19:12:01.721Z,33.65
2023-04-10T19:13:28.472Z,34.20
2023-04-10T19:14:52.934Z,33.75
2023-04-10T19:17:01.996Z,34.10
2023-04-10T19:18:47.481Z,31.67
2023-04-10T19:20:59.509Z,31.63
2023-04-10T19:22:40.866Z,29.98
2023-04-10T19:24:10.431Z,33.60
2023-04-10T19:25:35.425Z,31.80
2023-04-10T19:26:57.865Z,34.03
2023-04-10T19:32:38.969Z,31.23
2023-04-10T19:34:22.016Z,32.75
2023-04-10T19:35:46.651Z,33.00
2023-04-10T19:37:22.010Z,33.25
2023-04-10T19:39:03.588Z,34.97
2023-04-10T19:40:26.212Z,34.70
2023-04-10T19:41:48.472Z,35.97
2023-04-10T19:43:21.185Z,33.38
2023-04-10T19:44:46.547Z,35.00
2023-04-10T19:46:08.820Z,33.65
2023-04-10T19:47:31.234Z,34.63
2023-04-10T19:48:54.887Z,34.40
2023-04-10T19:50:17.312Z,34.85
2023-04-10T19:51:40.130Z,35.25
2023-04-10T19:53:02.403Z,36.25
2023-04-10T19:54:27.008Z,34.92
2023-04-10T19:55:49.071Z,34.95
2023-04-10T19:57:14.236Z,37.42
2023-04-10T19:58:40.963Z,36.17
2023-04-10T20:00:24.933Z,36.03
2023-04-10T20:01:47.472Z,37.35
2023-04-10T20:03:18.144Z,38.55
2023-04-10T20:04:48.588Z,38.45
2023-04-10T20:06:13.025Z,38.50
2023-04-10T20:07:35.448Z,38.80
2023-04-10T20:09:01.584Z,38.80
2023-04-10T20:10:25.647Z,37.15
2023-04-10T20:11:51.532Z,37.72
2023-04-10T20:13:13.868Z,39.70
2023-04-10T20:14:36.446Z,38.42
2023-04-10T20:15:58.894Z,36.90
2023-04-10T20:17:53.463Z,36.88
2023-04-10T20:19:19.315Z,38.88
2023-04-10T20:20:44.886Z,36.65
2023-04-10T20:22:11.952Z,36.63
2023-04-10T20:23:34.581Z,36.78
2023-04-10T20:24:56.144Z,38.03
2023-04-10T20:28:10.486Z,37.97
2023-04-10T20:30:52.344Z,38.03
2023-04-10T20:34:35.651Z,38.45
2023-04-10T20:39:31.884Z,37.95
2023-04-10T20:41:34.263Z,38.13
2023-04-10T20:45:40.741Z,39.47
2023-04-10T20:47:07.089Z,38.40
2023-04-10T20:48:48.384Z,37.60
2023-04-10T21:08:37.866Z,38.30
2023-04-10T21:10:06.453Z,37.92
2023-04-10T21:21:15.581Z,37.67
2023-04-10T21:22:58.750Z,39.45
2023-04-10T21:25:55.868Z,40.13
2023-04-10T21:36:31.697Z,38.33
2023-04-10T21:37:11.098Z,39.63
2023-04-10T21:38:35.605Z,39.42
2023-04-10T21:39:59.291Z,40.15
2023-04-10T22:58:29.299Z,42.35
2023-04-10T22:59:50.732Z,44.50
2023-04-10T23:01:13.676Z,45.80
2023-04-10T23:02:41.839Z,45.97
2023-04-10T23:04:14.429Z,47.88
2023-04-10T23:05:43.235Z,51.28
2023-04-10T23:07:04.502Z,47.10
2023-04-10T23:08:29.360Z,48.28
2023-04-10T23:09:51.224Z,47.78
2023-04-10T23:11:20.321Z,50.00
2023-04-10T23:12:43.662Z,52.92
2023-04-10T23:14:55.977Z,51.55
2023-04-10T23:16:44.110Z,49.93
2023-04-10T23:18:17.132Z,49.97
2023-04-10T23:19:40.056Z,49.95
2023-04-10T23:21:34.782Z,50.95
2023-04-10T23:23:12.237Z,49.90
2023-04-10T23:24:36.930Z,49.90
2023-04-10T23:26:02.935Z,52.88
2023-04-10T23:27:31.351Z,51.65
2023-04-10T23:28:56.361Z,52.08
2023-04-10T23:30:19.071Z,54.38
2023-04-10T23:31:41.792Z,54.15
2023-04-10T23:33:07.188Z,52.90
2023-04-10T23:36:38.555Z,50.05
2023-04-10T23:38:06.841Z,55.15
2023-04-10T23:39:31.031Z,52.67
2023-04-10T23:40:55.871Z,49.47
2023-04-10T23:42:21.390Z,51.38
2023-04-10T23:44:34.109Z,51.88
2023-04-10T23:46:05.210Z,51.80
2023-04-10T23:47:29.077Z,55.35
2023-04-10T23:48:54.687Z,58.55
2023-04-10T23:50:22.761Z,55.88
2023-04-10T23:52:59.569Z,53.38
2023-04-10T23:54:19.926Z,53.28
2023-04-10T23:55:40.898Z,55.15
2023-04-10T23:57:05.175Z,58.40
2023-04-10T23:58:32.882Z,61.17
2023-04-10T23:59:54.291Z,58.33
